sensor_id;sensor_type;location;lat;lon;timestamp;temperature;humidity
52073;DHT22;38074;51.232;6.826;2023-02-14T00:07:08;23.90;40.20
52073;DHT22;38074;51.232;6.826;2023-02-14T00:14:24;23.90;40.20
52073;DHT22;38074;51.232;6.826;2023-02-14T00:21:58;23.90;40.30
52073;DHT22;38074;51.232;6.826;2023-02-14T00:29:17;23.90;40.30
52073;DHT22;38074;51.232;6.826;2023-02-14T00:36:32;23.90;40.40
52073;DHT22;38074;51.232;6.826;2023-02-14T00:43:49;23.90;40.40
52073;DHT22;38074;51.232;6.826;2023-02-14T00:51:06;23.90;40.40
52073;DHT22;38074;51.232;6.826;2023-02-14T00:58:21;23.90;40.40
52073;DHT22;38074;51.232;6.826;2023-02-14T01:05:37;23.90;40.40
52073;DHT22;38074;51.232;6.826;2023-02-14T01:12:52;23.90;40.40
52073;DHT22;38074;51.232;6.826;2023-02-14T01:20:08;23.90;40.40
52073;DHT22;38074;51.232;6.826;2023-02-14T01:27:24;23.90;40.40
52073;DHT22;38074;51.232;6.826;2023-02-14T01:34:39;23.90;40.40
52073;DHT22;38074;51.232;6.826;2023-02-14T01:41:55;23.90;40.40
52073;DHT22;38074;51.232;6.826;2023-02-14T01:49:12;23.90;40.40
52073;DHT22;38074;51.232;6.826;2023-02-14T01:56:37;23.90;40.30
52073;DHT22;38074;51.232;6.826;2023-02-14T02:03:56;23.90;40.30
52073;DHT22;38074;51.232;6.826;2023-02-14T02:11:13;23.90;40.30
52073;DHT22;38074;51.232;6.826;2023-02-14T02:26:19;23.90;40.30
52073;DHT22;38074;51.232;6.826;2023-02-14T02:34:07;23.90;40.20
52073;DHT22;38074;51.232;6.826;2023-02-14T02:41:49;23.90;40.20
52073;DHT22;38074;51.232;6.826;2023-02-14T02:49:35;23.80;40.00
52073;DHT22;38074;51.232;6.826;2023-02-14T02:57:21;23.80;40.00
52073;DHT22;38074;51.232;6.826;2023-02-14T03:04:50;23.80;40.00
52073;DHT22;38074;51.232;6.826;2023-02-14T03:12:35;23.80;40.00
52073;DHT22;38074;51.232;6.826;2023-02-14T03:27:54;23.80;40.00
52073;DHT22;38074;51.232;6.826;2023-02-14T03:35:34;23.80;39.90
52073;DHT22;38074;51.232;6.826;2023-02-14T03:42:55;23.80;39.90
52073;DHT22;38074;51.232;6.826;2023-02-14T03:50:16;23.80;40.60
52073;DHT22;38074;51.232;6.826;2023-02-14T03:57:45;23.80;39.90
52073;DHT22;38074;51.232;6.826;2023-02-14T04:05:08;23.80;39.80
52073;DHT22;38074;51.232;6.826;2023-02-14T04:12:26;23.80;39.80
52073;DHT22;38074;51.232;6.826;2023-02-14T04:19:41;23.80;39.80
52073;DHT22;38074;51.232;6.826;2023-02-14T04:26:57;23.80;39.70
52073;DHT22;38074;51.232;6.826;2023-02-14T04:34:24;23.80;39.70
52073;DHT22;38074;51.232;6.826;2023-02-14T04:41:40;23.80;39.60
52073;DHT22;38074;51.232;6.826;2023-02-14T04:48:55;23.80;39.60
52073;DHT22;38074;51.232;6.826;2023-02-14T04:56:11;23.80;39.60
52073;DHT22;38074;51.232;6.826;2023-02-14T05:03:26;23.80;39.60
52073;DHT22;38074;51.232;6.826;2023-02-14T05:10:42;23.80;39.50
52073;DHT22;38074;51.232;6.826;2023-02-14T05:17:58;23.80;39.50
52073;DHT22;38074;51.232;6.826;2023-02-14T05:25:16;23.80;39.50
52073;DHT22;38074;51.232;6.826;2023-02-14T05:32:31;23.80;39.50
52073;DHT22;38074;51.232;6.826;2023-02-14T05:39:47;23.80;39.40
52073;DHT22;38074;51.232;6.826;2023-02-14T05:47:03;23.80;39.40
52073;DHT22;38074;51.232;6.826;2023-02-14T05:54:18;23.80;39.40
52073;DHT22;38074;51.232;6.826;2023-02-14T06:01:34;23.80;39.40
52073;DHT22;38074;51.232;6.826;2023-02-14T06:08:49;23.80;39.40
52073;DHT22;38074;51.232;6.826;2023-02-14T06:16:05;23.80;39.30
52073;DHT22;38074;51.232;6.826;2023-02-14T06:23:20;23.80;39.30
52073;DHT22;38074;51.232;6.826;2023-02-14T06:30:36;23.80;39.30
52073;DHT22;38074;51.232;6.826;2023-02-14T06:37:51;23.80;39.30
52073;DHT22;38074;51.232;6.826;2023-02-14T06:45:07;23.80;39.30
52073;DHT22;38074;51.232;6.826;2023-02-14T06:52:23;23.80;39.20
52073;DHT22;38074;51.232;6.826;2023-02-14T06:59:39;23.80;39.20
52073;DHT22;38074;51.232;6.826;2023-02-14T07:06:54;23.80;39.20
52073;DHT22;38074;51.232;6.826;2023-02-14T07:14:10;23.80;39.20
52073;DHT22;38074;51.232;6.826;2023-02-14T07:21:26;23.80;39.20
52073;DHT22;38074;51.232;6.826;2023-02-14T07:28:41;23.80;39.20
52073;DHT22;38074;51.232;6.826;2023-02-14T07:35:57;23.80;39.20
52073;DHT22;38074;51.232;6.826;2023-02-14T07:43:12;23.80;39.10
52073;DHT22;38074;51.232;6.826;2023-02-14T07:50:28;23.80;39.10
52073;DHT22;38074;51.232;6.826;2023-02-14T07:57:46;23.80;39.10
52073;DHT22;38074;51.232;6.826;2023-02-14T08:05:02;23.90;39.10
52073;DHT22;38074;51.232;6.826;2023-02-14T08:12:18;23.90;39.10
52073;DHT22;38074;51.232;6.826;2023-02-14T08:19:52;23.90;39.00
52073;DHT22;38074;51.232;6.826;2023-02-14T08:27:07;23.90;39.10
52073;DHT22;38074;51.232;6.826;2023-02-14T08:34:23;23.90;39.00
52073;DHT22;38074;51.232;6.826;2023-02-14T08:41:38;24.00;39.10
52073;DHT22;38074;51.232;6.826;2023-02-14T08:48:54;24.10;39.00
52073;DHT22;38074;51.232;6.826;2023-02-14T08:56:12;24.00;39.00
52073;DHT22;38074;51.232;6.826;2023-02-14T09:03:28;24.00;39.00
52073;DHT22;38074;51.232;6.826;2023-02-14T09:10:44;24.00;39.00
52073;DHT22;38074;51.232;6.826;2023-02-14T09:17:59;24.00;39.10
52073;DHT22;38074;51.232;6.826;2023-02-14T09:25:15;24.00;39.00
52073;DHT22;38074;51.232;6.826;2023-02-14T09:32:31;24.10;39.10
52073;DHT22;38074;51.232;6.826;2023-02-14T09:39:47;24.10;39.10
52073;DHT22;38074;51.232;6.826;2023-02-14T09:54:41;24.10;39.30
52073;DHT22;38074;51.232;6.826;2023-02-14T10:24:26;23.40;37.10
52073;DHT22;38074;51.232;6.826;2023-02-14T10:32:00;23.40;36.20
52073;DHT22;38074;51.232;6.826;2023-02-14T10:47:02;22.80;35.80
52073;DHT22;38074;51.232;6.826;2023-02-14T10:54:24;22.80;36.00
52073;DHT22;38074;51.232;6.826;2023-02-14T11:01:41;23.00;36.30
52073;DHT22;38074;51.232;6.826;2023-02-14T11:08:56;22.90;36.10
52073;DHT22;38074;51.232;6.826;2023-02-14T11:16:26;23.10;36.20
52073;DHT22;38074;51.232;6.826;2023-02-14T11:23:45;23.20;36.10
52073;DHT22;38074;51.232;6.826;2023-02-14T11:31:01;23.20;36.00
52073;DHT22;38074;51.232;6.826;2023-02-14T11:38:29;23.20;35.90
52073;DHT22;38074;51.232;6.826;2023-02-14T11:45:47;23.30;35.70
52073;DHT22;38074;51.232;6.826;2023-02-14T11:53:03;23.30;35.80
52073;DHT22;38074;51.232;6.826;2023-02-14T12:00:20;23.30;36.00
52073;DHT22;38074;51.232;6.826;2023-02-14T12:07:37;23.30;36.10
52073;DHT22;38074;51.232;6.826;2023-02-14T12:15:30;23.20;34.60
52073;DHT22;38074;51.232;6.826;2023-02-14T12:23:04;23.00;35.50
52073;DHT22;38074;51.232;6.826;2023-02-14T12:30:25;22.80;35.40
52073;DHT22;38074;51.232;6.826;2023-02-14T12:38:08;23.00;36.60
52073;DHT22;38074;51.232;6.826;2023-02-14T12:45:52;23.20;37.10
52073;DHT22;38074;51.232;6.826;2023-02-14T12:53:38;23.30;36.30
52073;DHT22;38074;51.232;6.826;2023-02-14T13:08:41;23.30;36.70
52073;DHT22;38074;51.232;6.826;2023-02-14T13:23:33;23.30;36.30
52073;DHT22;38074;51.232;6.826;2023-02-14T13:30:50;23.30;36.60
52073;DHT22;38074;51.232;6.826;2023-02-14T13:38:09;23.30;36.40
52073;DHT22;38074;51.232;6.826;2023-02-14T13:52:48;23.30;35.90
52073;DHT22;38074;51.232;6.826;2023-02-14T14:00:22;23.40;35.80
52073;DHT22;38074;51.232;6.826;2023-02-14T14:07:39;23.30;35.60
52073;DHT22;38074;51.232;6.826;2023-02-14T14:22:26;23.40;35.50
52073;DHT22;38074;51.232;6.826;2023-02-14T14:29:52;23.40;35.50
52073;DHT22;38074;51.232;6.826;2023-02-14T14:37:16;23.30;34.30
52073;DHT22;38074;51.232;6.826;2023-02-14T14:44:34;23.20;35.50
52073;DHT22;38074;51.232;6.826;2023-02-14T14:51:50;23.20;35.40
52073;DHT22;38074;51.232;6.826;2023-02-14T15:06:42;23.30;35.20
52073;DHT22;38074;51.232;6.826;2023-02-14T15:13:58;23.30;35.30
52073;DHT22;38074;51.232;6.826;2023-02-14T15:21:14;23.40;35.30
52073;DHT22;38074;51.232;6.826;2023-02-14T15:28:33;23.50;35.30
52073;DHT22;38074;51.232;6.826;2023-02-14T15:35:49;23.50;35.10
52073;DHT22;38074;51.232;6.826;2023-02-14T15:43:23;23.40;35.00
52073;DHT22;38074;51.232;6.826;2023-02-14T15:50:50;23.30;34.20
52073;DHT22;38074;51.232;6.826;2023-02-14T15:58:24;23.20;33.40
52073;DHT22;38074;51.232;6.826;2023-02-14T16:05:46;22.90;34.30
52073;DHT22;38074;51.232;6.826;2023-02-14T16:13:15;23.10;34.60
52073;DHT22;38074;51.232;6.826;2023-02-14T16:27:50;23.40;34.60
52073;DHT22;38074;51.232;6.826;2023-02-14T16:35:14;23.40;34.60
52073;DHT22;38074;51.232;6.826;2023-02-14T16:42:32;23.50;34.60
52073;DHT22;38074;51.232;6.826;2023-02-14T16:49:49;23.60;34.70
52073;DHT22;38074;51.232;6.826;2023-02-14T16:57:11;23.60;34.50
52073;DHT22;38074;51.232;6.826;2023-02-14T17:04:30;23.60;34.60
52073;DHT22;38074;51.232;6.826;2023-02-14T17:11:48;23.60;34.60
52073;DHT22;38074;51.232;6.826;2023-02-14T17:19:04;23.60;34.60
52073;DHT22;38074;51.232;6.826;2023-02-14T17:26:21;23.50;34.60
52073;DHT22;38074;51.232;6.826;2023-02-14T17:33:37;23.50;34.70
52073;DHT22;38074;51.232;6.826;2023-02-14T17:40:53;23.40;34.50
52073;DHT22;38074;51.232;6.826;2023-02-14T17:48:08;23.30;34.60
52073;DHT22;38074;51.232;6.826;2023-02-14T17:55:24;23.40;34.60
52073;DHT22;38074;51.232;6.826;2023-02-14T18:02:40;23.30;34.50
52073;DHT22;38074;51.232;6.826;2023-02-14T18:09:55;23.30;34.60
52073;DHT22;38074;51.232;6.826;2023-02-14T18:17:11;23.30;34.50
52073;DHT22;38074;51.232;6.826;2023-02-14T18:24:27;23.30;34.50
52073;DHT22;38074;51.232;6.826;2023-02-14T18:31:43;23.30;34.60
52073;DHT22;38074;51.232;6.826;2023-02-14T18:38:59;23.30;34.80
52073;DHT22;38074;51.232;6.826;2023-02-14T18:46:19;23.30;34.80
52073;DHT22;38074;51.232;6.826;2023-02-14T18:53:36;23.20;34.80
52073;DHT22;38074;51.232;6.826;2023-02-14T19:00:51;23.30;34.90
52073;DHT22;38074;51.232;6.826;2023-02-14T19:08:07;23.30;35.00
52073;DHT22;38074;51.232;6.826;2023-02-14T19:15:22;23.30;35.00
52073;DHT22;38074;51.232;6.826;2023-02-14T19:22:39;23.30;35.10
52073;DHT22;38074;51.232;6.826;2023-02-14T19:29:55;23.30;35.20
52073;DHT22;38074;51.232;6.826;2023-02-14T19:37:11;23.30;35.10
52073;DHT22;38074;51.232;6.826;2023-02-14T19:44:27;23.30;35.20
52073;DHT22;38074;51.232;6.826;2023-02-14T19:51:45;23.30;35.20
52073;DHT22;38074;51.232;6.826;2023-02-14T19:59:02;23.30;35.80
52073;DHT22;38074;51.232;6.826;2023-02-14T20:06:25;23.40;36.10
52073;DHT22;38074;51.232;6.826;2023-02-14T20:13:41;23.40;36.30
52073;DHT22;38074;51.232;6.826;2023-02-14T20:20:56;23.40;36.40
52073;DHT22;38074;51.232;6.826;2023-02-14T20:28:18;23.40;36.40
52073;DHT22;38074;51.232;6.826;2023-02-14T20:35:38;23.40;36.90
52073;DHT22;38074;51.232;6.826;2023-02-14T20:42:53;23.40;36.60
52073;DHT22;38074;51.232;6.826;2023-02-14T20:50:09;23.40;36.60
52073;DHT22;38074;51.232;6.826;2023-02-14T20:57:28;23.50;36.60
52073;DHT22;38074;51.232;6.826;2023-02-14T21:04:43;23.50;36.50
52073;DHT22;38074;51.232;6.826;2023-02-14T21:11:59;23.50;36.40
52073;DHT22;38074;51.232;6.826;2023-02-14T21:19:14;23.50;36.20
52073;DHT22;38074;51.232;6.826;2023-02-14T21:26:30;23.50;36.30
52073;DHT22;38074;51.232;6.826;2023-02-14T21:33:50;23.40;36.30
52073;DHT22;38074;51.232;6.826;2023-02-14T21:41:11;23.50;36.30
52073;DHT22;38074;51.232;6.826;2023-02-14T21:48:27;23.40;36.20
52073;DHT22;38074;51.232;6.826;2023-02-14T21:56:11;23.40;36.10
52073;DHT22;38074;51.232;6.826;2023-02-14T22:03:27;23.40;36.10
52073;DHT22;38074;51.232;6.826;2023-02-14T22:10:42;23.40;36.00
52073;DHT22;38074;51.232;6.826;2023-02-14T22:17:58;23.10;35.80
52073;DHT22;38074;51.232;6.826;2023-02-14T22:25:14;23.20;36.00
52073;DHT22;38074;51.232;6.826;2023-02-14T22:32:29;23.30;35.90
52073;DHT22;38074;51.232;6.826;2023-02-14T22:39:45;23.30;36.00
52073;DHT22;38074;51.232;6.826;2023-02-14T22:47:00;23.40;36.10
52073;DHT22;38074;51.232;6.826;2023-02-14T22:54:16;23.40;36.10
52073;DHT22;38074;51.232;6.826;2023-02-14T23:01:33;23.40;36.10
52073;DHT22;38074;51.232;6.826;2023-02-14T23:08:49;23.40;36.20
52073;DHT22;38074;51.232;6.826;2023-02-14T23:16:04;23.50;36.30
52073;DHT22;38074;51.232;6.826;2023-02-14T23:23:39;23.50;37.10
52073;DHT22;38074;51.232;6.826;2023-02-14T23:30:59;23.50;36.50
52073;DHT22;38074;51.232;6.826;2023-02-14T23:38:15;23.50;36.70
52073;DHT22;38074;51.232;6.826;2023-02-14T23:45:31;23.50;36.70
52073;DHT22;38074;51.232;6.826;2023-02-14T23:52:49;23.50;36.80
